Seven Devils, North Carolina
Current Conditions -  °F | °C
As of 12:55 AM on Saturday 29 Nov 2014 (Local Time) from KTNB Reporting Station
Clear Clear  
Wind Chill: 24°   Ceiling: Unl
Heat Index: 24°   Visibility: 10mi
Dew Point: 24°   Wind: 0mph
Humidity: 99%   Direction: NA
Pressure: 30.16"   Gusts: NA
Location:  36.1797°N, 81.8424°W
Report Text: KTNB 290555Z AUTO 00000KT 10SM CLR M04/M05 A3016 RMK AO2 T10451047 11016 21050 400021061
Loading
Personal Weather Stations






























Interactive Weather Map New forecast layout! Learn more

10-Day Weather Forecast

Advertisements
Track Severe Weather on mobile